Lymantown, Wisconsin
Current Conditions -  °F | °C
As of 5:15 AM on Tuesday 21 Oct 2014 (Local Time) from KPBH Reporting Station
Overcast Overcast  
Wind Chill: 34°   Ceiling: 2100
Heat Index: 39°   Visibility: 10mi
Dew Point: 35°   Wind: 7mph
Humidity: 86%   Direction: 40°NE
Pressure: 30.16"   Gusts: NA
Location:  45.9599°N, 90.2362°W
Report Text: KPBH 211015Z AUTO 04006KT 10SM OVC021 04/02 A3016 RMK AO2 T00370015
Loading
Personal Weather Stations






























Interactive Weather Map
Tropical Storm Tracking
New forecast layout! Learn more

10-Day Weather Forecast

Advertisements
Track Severe Weather on mobile